sensor_id;sensor_type;location;lat;lon;timestamp;pressure;altitude;pressure_sealevel;temperature;humidity
48095;BME280;33874;52.070;-0.516;2023-04-25T00:00:21;101223.60;;;3.21;69.65
48095;BME280;33874;52.070;-0.516;2023-04-25T00:03:20;101216.63;;;3.18;69.60
48095;BME280;33874;52.070;-0.516;2023-04-25T00:06:56;101218.16;;;3.15;69.77
48095;BME280;33874;52.070;-0.516;2023-04-25T00:09:24;101221.59;;;3.12;69.60
48095;BME280;33874;52.070;-0.516;2023-04-25T00:11:52;101223.32;;;3.08;69.75
48095;BME280;33874;52.070;-0.516;2023-04-25T00:14:20;101228.61;;;3.02;69.84
48095;BME280;33874;52.070;-0.516;2023-04-25T00:16:48;101226.80;;;2.97;69.78
48095;BME280;33874;52.070;-0.516;2023-04-25T00:19:19;101228.88;;;2.89;69.89
48095;BME280;33874;52.070;-0.516;2023-04-25T00:21:52;101229.25;;;2.85;70.06
48095;BME280;33874;52.070;-0.516;2023-04-25T00:24:21;101232.98;;;2.83;69.95
48095;BME280;33874;52.070;-0.516;2023-04-25T00:26:51;101233.88;;;2.78;70.10
48095;BME280;33874;52.070;-0.516;2023-04-25T00:29:19;101231.97;;;2.75;70.16
48095;BME280;33874;52.070;-0.516;2023-04-25T00:31:47;101230.70;;;2.72;70.35
48095;BME280;33874;52.070;-0.516;2023-04-25T00:34:15;101233.52;;;2.67;70.28
48095;BME280;33874;52.070;-0.516;2023-04-25T00:37:04;101235.45;;;2.62;70.45
48095;BME280;33874;52.070;-0.516;2023-04-25T00:39:35;101235.05;;;2.59;70.54
48095;BME280;33874;52.070;-0.516;2023-04-25T00:42:05;101238.39;;;2.59;70.52
48095;BME280;33874;52.070;-0.516;2023-04-25T00:44:34;101237.76;;;2.58;70.74
48095;BME280;33874;52.070;-0.516;2023-04-25T00:47:03;101239.20;;;2.56;70.62
48095;BME280;33874;52.070;-0.516;2023-04-25T00:49:32;101238.98;;;2.57;70.97
48095;BME280;33874;52.070;-0.516;2023-04-25T00:52:04;101242.45;;;2.58;70.78
48095;BME280;33874;52.070;-0.516;2023-04-25T00:54:33;101238.65;;;2.57;70.82
48095;BME280;33874;52.070;-0.516;2023-04-25T00:57:00;101236.90;;;2.57;70.70
48095;BME280;33874;52.070;-0.516;2023-04-25T00:59:37;101234.52;;;2.56;70.79
48095;BME280;33874;52.070;-0.516;2023-04-25T01:02:06;101232.64;;;2.55;70.68
48095;BME280;33874;52.070;-0.516;2023-04-25T01:04:34;101234.77;;;2.55;70.62
48095;BME280;33874;52.070;-0.516;2023-04-25T01:07:03;101237.97;;;2.53;70.99
48095;BME280;33874;52.070;-0.516;2023-04-25T01:09:31;101238.92;;;2.51;70.66
48095;BME280;33874;52.070;-0.516;2023-04-25T01:12:03;101242.81;;;2.49;70.94
48095;BME280;33874;52.070;-0.516;2023-04-25T01:14:31;101244.30;;;2.47;70.68
48095;BME280;33874;52.070;-0.516;2023-04-25T01:17:00;101241.98;;;2.44;70.97
48095;BME280;33874;52.070;-0.516;2023-04-25T01:19:28;101246.61;;;2.41;70.97
48095;BME280;33874;52.070;-0.516;2023-04-25T01:21:57;101245.61;;;2.40;71.07
48095;BME280;33874;52.070;-0.516;2023-04-25T01:24:25;101243.73;;;2.39;70.83
48095;BME280;33874;52.070;-0.516;2023-04-25T01:26:54;101241.70;;;2.39;70.97
48095;BME280;33874;52.070;-0.516;2023-04-25T01:29:24;101241.73;;;2.38;70.96
48095;BME280;33874;52.070;-0.516;2023-04-25T01:31:52;101245.10;;;2.36;71.01
48095;BME280;33874;52.070;-0.516;2023-04-25T01:34:21;101248.16;;;2.34;70.98
48095;BME280;33874;52.070;-0.516;2023-04-25T01:36:49;101249.54;;;2.30;71.03
48095;BME280;33874;52.070;-0.516;2023-04-25T01:39:18;101252.67;;;2.25;70.83
48095;BME280;33874;52.070;-0.516;2023-04-25T01:41:48;101256.14;;;2.17;70.86
48095;BME280;33874;52.070;-0.516;2023-04-25T01:44:16;101255.95;;;2.09;71.34
48095;BME280;33874;52.070;-0.516;2023-04-25T01:46:45;101256.46;;;2.05;71.41
48095;BME280;33874;52.070;-0.516;2023-04-25T01:49:13;101254.11;;;2.03;71.35
48095;BME280;33874;52.070;-0.516;2023-04-25T01:51:44;101257.77;;;2.03;71.81
48095;BME280;33874;52.070;-0.516;2023-04-25T01:54:13;101265.81;;;2.05;71.78
48095;BME280;33874;52.070;-0.516;2023-04-25T01:56:49;101263.63;;;2.08;71.88
48095;BME280;33874;52.070;-0.516;2023-04-25T01:59:18;101268.58;;;2.10;71.74
48095;BME280;33874;52.070;-0.516;2023-04-25T02:01:47;101266.11;;;2.11;71.87
48095;BME280;33874;52.070;-0.516;2023-04-25T02:04:15;101267.14;;;2.11;71.80
48095;BME280;33874;52.070;-0.516;2023-04-25T02:06:44;101267.98;;;2.11;71.93
48095;BME280;33874;52.070;-0.516;2023-04-25T02:09:11;101263.66;;;2.11;71.83
48095;BME280;33874;52.070;-0.516;2023-04-25T02:11:39;101264.79;;;2.09;71.79
48095;BME280;33874;52.070;-0.516;2023-04-25T02:14:07;101265.70;;;2.08;71.90
48095;BME280;33874;52.070;-0.516;2023-04-25T02:16:35;101263.33;;;2.07;71.92
48095;BME280;33874;52.070;-0.516;2023-04-25T02:19:03;101265.48;;;2.05;71.82
48095;BME280;33874;52.070;-0.516;2023-04-25T02:21:31;101265.56;;;2.03;71.90
48095;BME280;33874;52.070;-0.516;2023-04-25T02:24:00;101263.23;;;2.01;71.81
48095;BME280;33874;52.070;-0.516;2023-04-25T02:26:28;101260.29;;;2.01;71.85
48095;BME280;33874;52.070;-0.516;2023-04-25T02:28:56;101261.35;;;2.00;71.97
48095;BME280;33874;52.070;-0.516;2023-04-25T02:31:25;101262.71;;;2.01;72.07
48095;BME280;33874;52.070;-0.516;2023-04-25T02:33:54;101265.84;;;2.00;72.03
48095;BME280;33874;52.070;-0.516;2023-04-25T02:36:22;101269.48;;;1.97;71.79
48095;BME280;33874;52.070;-0.516;2023-04-25T02:38:51;101266.89;;;1.92;72.02
48095;BME280;33874;52.070;-0.516;2023-04-25T02:41:19;101265.42;;;1.85;71.81
48095;BME280;33874;52.070;-0.516;2023-04-25T02:43:48;101263.36;;;1.80;71.92
48095;BME280;33874;52.070;-0.516;2023-04-25T02:46:17;101267.94;;;1.74;71.95
48095;BME280;33874;52.070;-0.516;2023-04-25T02:48:59;101269.16;;;1.70;71.98
48095;BME280;33874;52.070;-0.516;2023-04-25T02:51:26;101272.60;;;1.66;71.97
48095;BME280;33874;52.070;-0.516;2023-04-25T02:53:55;101276.05;;;1.62;71.86
48095;BME280;33874;52.070;-0.516;2023-04-25T02:56:23;101279.16;;;1.58;71.98
48095;BME280;33874;52.070;-0.516;2023-04-25T02:58:54;101274.42;;;1.55;72.31
48095;BME280;33874;52.070;-0.516;2023-04-25T03:01:21;101279.36;;;1.53;72.55
48095;BME280;33874;52.070;-0.516;2023-04-25T03:03:50;101278.41;;;1.50;72.36
48095;BME280;33874;52.070;-0.516;2023-04-25T03:06:18;101281.80;;;1.48;72.43
48095;BME280;33874;52.070;-0.516;2023-04-25T03:08:46;101279.83;;;1.45;72.49
48095;BME280;33874;52.070;-0.516;2023-04-25T03:11:15;101283.58;;;1.42;72.47
48095;BME280;33874;52.070;-0.516;2023-04-25T03:13:43;101284.05;;;1.39;72.64
48095;BME280;33874;52.070;-0.516;2023-04-25T03:16:14;101292.10;;;1.36;72.85
48095;BME280;33874;52.070;-0.516;2023-04-25T03:18:43;101289.98;;;1.33;72.57
48095;BME280;33874;52.070;-0.516;2023-04-25T03:21:11;101293.90;;;1.30;72.77
48095;BME280;33874;52.070;-0.516;2023-04-25T03:23:51;101298.27;;;1.25;72.44
48095;BME280;33874;52.070;-0.516;2023-04-25T03:26:19;101294.79;;;1.20;72.61
48095;BME280;33874;52.070;-0.516;2023-04-25T03:28:48;101298.38;;;1.17;72.97
48095;BME280;33874;52.070;-0.516;2023-04-25T03:31:18;101296.20;;;1.15;73.24
48095;BME280;33874;52.070;-0.516;2023-04-25T03:33:46;101294.65;;;1.15;72.91
48095;BME280;33874;52.070;-0.516;2023-04-25T03:36:15;101294.81;;;1.15;73.26
48095;BME280;33874;52.070;-0.516;2023-04-25T03:38:43;101291.16;;;1.15;73.58
48095;BME280;33874;52.070;-0.516;2023-04-25T03:41:11;101293.98;;;1.14;73.03
48095;BME280;33874;52.070;-0.516;2023-04-25T03:43:39;101304.06;;;1.13;73.24
48095;BME280;33874;52.070;-0.516;2023-04-25T03:46:08;101312.04;;;1.08;73.25
48095;BME280;33874;52.070;-0.516;2023-04-25T03:48:36;101312.61;;;1.02;73.27
48095;BME280;33874;52.070;-0.516;2023-04-25T03:51:04;101312.10;;;0.97;73.30
48095;BME280;33874;52.070;-0.516;2023-04-25T03:53:53;101316.01;;;0.94;73.68
48095;BME280;33874;52.070;-0.516;2023-04-25T03:56:20;101318.31;;;0.92;73.65
48095;BME280;33874;52.070;-0.516;2023-04-25T03:58:48;101315.98;;;0.90;73.64
48095;BME280;33874;52.070;-0.516;2023-04-25T04:01:16;101315.46;;;0.89;73.76
48095;BME280;33874;52.070;-0.516;2023-04-25T04:03:44;101316.27;;;0.91;73.57
48095;BME280;33874;52.070;-0.516;2023-04-25T04:06:12;101317.52;;;0.90;73.57
48095;BME280;33874;52.070;-0.516;2023-04-25T04:08:40;101320.70;;;0.89;73.82
48095;BME280;33874;52.070;-0.516;2023-04-25T04:11:08;101321.99;;;0.86;74.04
48095;BME280;33874;52.070;-0.516;2023-04-25T04:13:36;101324.65;;;0.84;73.88
48095;BME280;33874;52.070;-0.516;2023-04-25T04:16:04;101323.81;;;0.84;74.16
48095;BME280;33874;52.070;-0.516;2023-04-25T04:18:33;101330.75;;;0.84;74.10
48095;BME280;33874;52.070;-0.516;2023-04-25T04:21:01;101340.98;;;0.83;74.22
48095;BME280;33874;52.070;-0.516;2023-04-25T04:23:29;101343.52;;;0.85;74.16
48095;BME280;33874;52.070;-0.516;2023-04-25T04:25:57;101347.44;;;0.86;74.10
48095;BME280;33874;52.070;-0.516;2023-04-25T04:28:26;101348.96;;;0.86;74.12
48095;BME280;33874;52.070;-0.516;2023-04-25T04:30:54;101346.89;;;0.86;73.84
48095;BME280;33874;52.070;-0.516;2023-04-25T04:33:23;101343.61;;;0.86;74.27
48095;BME280;33874;52.070;-0.516;2023-04-25T04:35:51;101344.02;;;0.85;74.10
48095;BME280;33874;52.070;-0.516;2023-04-25T04:38:21;101345.95;;;0.84;73.97
48095;BME280;33874;52.070;-0.516;2023-04-25T04:40:49;101343.43;;;0.82;74.01
48095;BME280;33874;52.070;-0.516;2023-04-25T04:43:19;101342.64;;;0.80;74.19
48095;BME280;33874;52.070;-0.516;2023-04-25T04:45:47;101349.46;;;0.78;74.05
48095;BME280;33874;52.070;-0.516;2023-04-25T04:48:17;101348.31;;;0.76;74.23
48095;BME280;33874;52.070;-0.516;2023-04-25T04:50:45;101345.85;;;0.77;74.17
48095;BME280;33874;52.070;-0.516;2023-04-25T04:53:13;101350.80;;;0.79;74.31
48095;BME280;33874;52.070;-0.516;2023-04-25T04:55:41;101356.66;;;0.79;74.30
48095;BME280;33874;52.070;-0.516;2023-04-25T04:58:12;101357.15;;;0.81;74.08
48095;BME280;33874;52.070;-0.516;2023-04-25T05:00:40;101353.93;;;0.83;74.14
48095;BME280;33874;52.070;-0.516;2023-04-25T05:03:10;101357.30;;;0.86;74.13
48095;BME280;33874;52.070;-0.516;2023-04-25T05:05:42;101359.77;;;0.89;74.06
48095;BME280;33874;52.070;-0.516;2023-04-25T05:08:11;101362.59;;;0.93;74.27
48095;BME280;33874;52.070;-0.516;2023-04-25T05:10:39;101364.23;;;0.95;73.62
48095;BME280;33874;52.070;-0.516;2023-04-25T05:13:07;101364.70;;;0.97;74.05
48095;BME280;33874;52.070;-0.516;2023-04-25T05:15:35;101361.98;;;0.95;73.62
48095;BME280;33874;52.070;-0.516;2023-04-25T05:18:04;101362.96;;;0.98;73.53
48095;BME280;33874;52.070;-0.516;2023-04-25T05:20:31;101368.37;;;1.01;73.94
48095;BME280;33874;52.070;-0.516;2023-04-25T05:23:00;101383.92;;;1.07;73.79
48095;BME280;33874;52.070;-0.516;2023-04-25T05:25:29;101393.31;;;1.11;74.02
48095;BME280;33874;52.070;-0.516;2023-04-25T05:27:58;101394.36;;;1.15;73.73
48095;BME280;33874;52.070;-0.516;2023-04-25T05:30:26;101398.27;;;1.22;74.08
48095;BME280;33874;52.070;-0.516;2023-04-25T05:32:53;101403.72;;;1.30;73.78
48095;BME280;33874;52.070;-0.516;2023-04-25T05:35:22;101405.57;;;1.36;73.94
48095;BME280;33874;52.070;-0.516;2023-04-25T05:37:53;101407.23;;;1.42;73.83
48095;BME280;33874;52.070;-0.516;2023-04-25T05:40:22;101408.38;;;1.49;73.94
48095;BME280;33874;52.070;-0.516;2023-04-25T05:42:50;101411.59;;;1.56;73.59
48095;BME280;33874;52.070;-0.516;2023-04-25T05:45:18;101417.17;;;1.64;73.51
48095;BME280;33874;52.070;-0.516;2023-04-25T05:47:45;101422.17;;;1.69;73.43
48095;BME280;33874;52.070;-0.516;2023-04-25T05:50:14;101421.35;;;1.78;73.26
48095;BME280;33874;52.070;-0.516;2023-04-25T05:52:42;101421.48;;;1.97;72.79
48095;BME280;33874;52.070;-0.516;2023-04-25T05:55:10;101419.35;;;3.13;72.02
48095;BME280;33874;52.070;-0.516;2023-04-25T05:57:38;101418.86;;;4.55;70.56
48095;BME280;33874;52.070;-0.516;2023-04-25T06:00:09;101419.98;;;5.73;68.58
48095;BME280;33874;52.070;-0.516;2023-04-25T06:02:37;101414.96;;;6.72;67.16
48095;BME280;33874;52.070;-0.516;2023-04-25T06:05:05;101408.58;;;7.64;65.98
48095;BME280;33874;52.070;-0.516;2023-04-25T06:07:43;101408.08;;;8.54;64.99
48095;BME280;33874;52.070;-0.516;2023-04-25T06:10:13;101413.07;;;9.36;63.65
48095;BME280;33874;52.070;-0.516;2023-04-25T06:12:41;101423.52;;;9.90;61.49
48095;BME280;33874;52.070;-0.516;2023-04-25T06:15:09;101420.19;;;10.32;60.32
48095;BME280;33874;52.070;-0.516;2023-04-25T06:17:55;101421.02;;;10.75;59.36
48095;BME280;33874;52.070;-0.516;2023-04-25T06:20:24;101413.16;;;11.25;59.13
48095;BME280;33874;52.070;-0.516;2023-04-25T06:22:52;101418.72;;;11.71;57.68
48095;BME280;33874;52.070;-0.516;2023-04-25T06:25:20;101416.98;;;11.82;56.43
48095;BME280;33874;52.070;-0.516;2023-04-25T06:27:48;101417.84;;;12.15;56.34
48095;BME280;33874;52.070;-0.516;2023-04-25T06:30:17;101413.44;;;12.59;56.00
48095;BME280;33874;52.070;-0.516;2023-04-25T06:32:49;101413.17;;;13.08;55.08
48095;BME280;33874;52.070;-0.516;2023-04-25T06:35:18;101408.83;;;13.34;53.23
48095;BME280;33874;52.070;-0.516;2023-04-25T06:37:46;101403.48;;;13.47;52.27
48095;BME280;33874;52.070;-0.516;2023-04-25T06:40:15;101404.75;;;13.59;51.71
48095;BME280;33874;52.070;-0.516;2023-04-25T06:42:45;101410.20;;;13.71;51.17
48095;BME280;33874;52.070;-0.516;2023-04-25T06:45:13;101414.75;;;13.78;50.93
48095;BME280;33874;52.070;-0.516;2023-04-25T06:48:01;101419.56;;;13.75;50.28
48095;BME280;33874;52.070;-0.516;2023-04-25T06:50:29;101425.95;;;13.67;49.91
48095;BME280;33874;52.070;-0.516;2023-04-25T06:52:56;101431.77;;;13.63;50.17
48095;BME280;33874;52.070;-0.516;2023-04-25T06:55:24;101440.75;;;13.90;50.72
48095;BME280;33874;52.070;-0.516;2023-04-25T06:57:52;101445.19;;;13.99;49.44
48095;BME280;33874;52.070;-0.516;2023-04-25T07:00:20;101439.64;;;14.00;48.51
48095;BME280;33874;52.070;-0.516;2023-04-25T07:02:48;101447.52;;;14.05;48.52
48095;BME280;33874;52.070;-0.516;2023-04-25T07:05:16;101447.42;;;14.04;48.79
48095;BME280;33874;52.070;-0.516;2023-04-25T07:07:45;101453.45;;;14.10;48.46
48095;BME280;33874;52.070;-0.516;2023-04-25T07:10:13;101463.63;;;14.17;48.59
48095;BME280;33874;52.070;-0.516;2023-04-25T07:12:41;101469.57;;;14.17;48.13
48095;BME280;33874;52.070;-0.516;2023-04-25T07:15:09;101466.84;;;14.22;48.12
48095;BME280;33874;52.070;-0.516;2023-04-25T07:17:39;101462.27;;;14.06;47.61
48095;BME280;33874;52.070;-0.516;2023-04-25T07:20:10;101458.74;;;13.88;47.77
48095;BME280;33874;52.070;-0.516;2023-04-25T07:22:38;101456.41;;;13.82;47.63
48095;BME280;33874;52.070;-0.516;2023-04-25T07:25:10;101459.13;;;13.59;47.34
48095;BME280;33874;52.070;-0.516;2023-04-25T07:27:43;101461.70;;;13.33;47.42
48095;BME280;33874;52.070;-0.516;2023-04-25T07:30:12;101466.73;;;13.24;47.91
48095;BME280;33874;52.070;-0.516;2023-04-25T07:32:40;101465.24;;;13.33;48.07
48095;BME280;33874;52.070;-0.516;2023-04-25T07:35:08;101465.39;;;13.29;47.96
48095;BME280;33874;52.070;-0.516;2023-04-25T07:37:45;101467.76;;;13.18;47.69
48095;BME280;33874;52.070;-0.516;2023-04-25T07:40:13;101474.84;;;13.01;47.93
48095;BME280;33874;52.070;-0.516;2023-04-25T07:42:44;101472.91;;;12.86;48.99
48095;BME280;33874;52.070;-0.516;2023-04-25T07:45:12;101483.06;;;12.41;49.04
48095;BME280;33874;52.070;-0.516;2023-04-25T07:47:46;101490.91;;;11.62;49.79
48095;BME280;33874;52.070;-0.516;2023-04-25T07:50:14;101498.47;;;10.81;50.20
48095;BME280;33874;52.070;-0.516;2023-04-25T07:52:42;101503.55;;;10.05;51.37
48095;BME280;33874;52.070;-0.516;2023-04-25T07:55:10;101503.92;;;9.47;52.48
48095;BME280;33874;52.070;-0.516;2023-04-25T07:57:38;101504.96;;;9.08;53.39
48095;BME280;33874;52.070;-0.516;2023-04-25T08:00:06;101503.63;;;8.80;54.27
48095;BME280;33874;52.070;-0.516;2023-04-25T08:02:37;101506.25;;;8.54;54.27
48095;BME280;33874;52.070;-0.516;2023-04-25T08:05:05;101504.80;;;8.35;55.25
48095;BME280;33874;52.070;-0.516;2023-04-25T08:07:36;101508.31;;;8.32;55.83
48095;BME280;33874;52.070;-0.516;2023-04-25T08:10:04;101509.20;;;8.29;56.39
48095;BME280;33874;52.070;-0.516;2023-04-25T08:12:33;101506.84;;;8.24;55.88
48095;BME280;33874;52.070;-0.516;2023-04-25T08:15:01;101511.81;;;8.15;55.73
48095;BME280;33874;52.070;-0.516;2023-04-25T08:17:28;101514.95;;;8.04;55.16
48095;BME280;33874;52.070;-0.516;2023-04-25T08:19:57;101515.02;;;7.94;55.86
48095;BME280;33874;52.070;-0.516;2023-04-25T08:22:25;101516.20;;;7.95;56.29
48095;BME280;33874;52.070;-0.516;2023-04-25T08:24:53;101519.25;;;7.97;56.04
48095;BME280;33874;52.070;-0.516;2023-04-25T08:27:21;101521.73;;;7.99;56.04
48095;BME280;33874;52.070;-0.516;2023-04-25T08:29:49;101527.91;;;8.01;55.69
48095;BME280;33874;52.070;-0.516;2023-04-25T08:32:18;101526.73;;;8.00;55.71
48095;BME280;33874;52.070;-0.516;2023-04-25T08:34:47;101532.32;;;8.04;55.95
48095;BME280;33874;52.070;-0.516;2023-04-25T08:37:15;101530.95;;;8.09;56.11
48095;BME280;33874;52.070;-0.516;2023-04-25T08:39:44;101533.66;;;8.15;55.28
48095;BME280;33874;52.070;-0.516;2023-04-25T08:42:13;101536.91;;;8.17;55.56
48095;BME280;33874;52.070;-0.516;2023-04-25T08:44:45;101535.16;;;8.26;55.34
48095;BME280;33874;52.070;-0.516;2023-04-25T08:47:14;101536.66;;;8.32;55.22
48095;BME280;33874;52.070;-0.516;2023-04-25T08:49:44;101536.03;;;8.34;54.68
48095;BME280;33874;52.070;-0.516;2023-04-25T08:52:13;101537.23;;;8.34;54.16
48095;BME280;33874;52.070;-0.516;2023-04-25T08:54:42;101539.20;;;8.33;53.96
48095;BME280;33874;52.070;-0.516;2023-04-25T08:57:12;101542.81;;;8.32;53.09
48095;BME280;33874;52.070;-0.516;2023-04-25T08:59:40;101542.56;;;8.16;52.29
48095;BME280;33874;52.070;-0.516;2023-04-25T09:02:12;101536.77;;;8.22;53.42
48095;BME280;33874;52.070;-0.516;2023-04-25T09:04:43;101534.46;;;8.34;53.51
48095;BME280;33874;52.070;-0.516;2023-04-25T09:07:12;101535.23;;;8.44;53.34
48095;BME280;33874;52.070;-0.516;2023-04-25T09:09:40;101536.52;;;8.51;53.13
48095;BME280;33874;52.070;-0.516;2023-04-25T09:12:08;101537.13;;;8.53;53.11
48095;BME280;33874;52.070;-0.516;2023-04-25T09:14:36;101539.66;;;8.62;53.37
48095;BME280;33874;52.070;-0.516;2023-04-25T09:17:04;101537.81;;;8.73;53.12
48095;BME280;33874;52.070;-0.516;2023-04-25T09:19:35;101537.61;;;8.83;53.00
48095;BME280;33874;52.070;-0.516;2023-04-25T09:22:10;101535.02;;;8.91;51.80
48095;BME280;33874;52.070;-0.516;2023-04-25T09:24:42;101527.09;;;9.02;51.97
48095;BME280;33874;52.070;-0.516;2023-04-25T09:27:12;101529.90;;;9.12;51.42
48095;BME280;33874;52.070;-0.516;2023-04-25T09:29:40;101524.48;;;9.21;51.33
48095;BME280;33874;52.070;-0.516;2023-04-25T09:34:45;101524.55;;;9.25;50.89
48095;BME280;33874;52.070;-0.516;2023-04-25T09:37:19;101523.88;;;9.11;51.01
48095;BME280;33874;52.070;-0.516;2023-04-25T09:39:57;101517.55;;;9.17;51.56
48095;BME280;33874;52.070;-0.516;2023-04-25T09:42:27;101517.20;;;9.30;51.49
48095;BME280;33874;52.070;-0.516;2023-04-25T09:44:56;101519.99;;;9.25;50.73
48095;BME280;33874;52.070;-0.516;2023-04-25T09:47:25;101520.17;;;9.11;50.41
48095;BME280;33874;52.070;-0.516;2023-04-25T09:49:54;101523.90;;;8.95;50.46
48095;BME280;33874;52.070;-0.516;2023-04-25T09:52:24;101525.27;;;8.95;49.75
48095;BME280;33874;52.070;-0.516;2023-04-25T09:54:53;101522.37;;;8.99;49.97
48095;BME280;33874;52.070;-0.516;2023-04-25T09:57:24;101519.01;;;8.92;49.81
48095;BME280;33874;52.070;-0.516;2023-04-25T09:59:52;101523.84;;;9.01;50.04
48095;BME280;33874;52.070;-0.516;2023-04-25T10:02:24;101527.34;;;9.17;49.75
48095;BME280;33874;52.070;-0.516;2023-04-25T10:04:53;101518.35;;;9.15;48.38
48095;BME280;33874;52.070;-0.516;2023-04-25T10:07:25;101516.23;;;9.26;48.19
48095;BME280;33874;52.070;-0.516;2023-04-25T10:09:59;101513.63;;;9.20;48.17
48095;BME280;33874;52.070;-0.516;2023-04-25T10:12:28;101514.15;;;9.41;48.81
48095;BME280;33874;52.070;-0.516;2023-04-25T10:14:57;101520.54;;;9.73;49.05
48095;BME280;33874;52.070;-0.516;2023-04-25T10:17:26;101525.64;;;9.81;48.63
48095;BME280;33874;52.070;-0.516;2023-04-25T10:19:56;101517.23;;;9.98;48.76
48095;BME280;33874;52.070;-0.516;2023-04-25T10:22:35;101520.91;;;10.23;48.60
48095;BME280;33874;52.070;-0.516;2023-04-25T10:25:04;101518.60;;;10.31;48.02
48095;BME280;33874;52.070;-0.516;2023-04-25T10:27:32;101522.75;;;10.12;45.40
48095;BME280;33874;52.070;-0.516;2023-04-25T10:30:01;101523.85;;;9.86;45.16
48095;BME280;33874;52.070;-0.516;2023-04-25T10:32:32;101530.04;;;9.76;45.76
48095;BME280;33874;52.070;-0.516;2023-04-25T10:37:56;101528.61;;;10.14;46.25
48095;BME280;33874;52.070;-0.516;2023-04-25T10:40:24;101533.34;;;10.34;46.39
48095;BME280;33874;52.070;-0.516;2023-04-25T10:42:52;101528.60;;;10.58;46.92
48095;BME280;33874;52.070;-0.516;2023-04-25T10:45:22;101529.31;;;10.96;46.65
48095;BME280;33874;52.070;-0.516;2023-04-25T10:47:50;101526.91;;;11.19;46.11
48095;BME280;33874;52.070;-0.516;2023-04-25T10:50:18;101529.42;;;11.47;46.20
48095;BME280;33874;52.070;-0.516;2023-04-25T10:52:46;101525.08;;;11.76;46.29
48095;BME280;33874;52.070;-0.516;2023-04-25T10:55:14;101520.37;;;12.05;46.08
48095;BME280;33874;52.070;-0.516;2023-04-25T10:57:44;101525.21;;;11.90;44.85
48095;BME280;33874;52.070;-0.516;2023-04-25T11:00:14;101532.92;;;11.54;43.79
48095;BME280;33874;52.070;-0.516;2023-04-25T11:02:47;101536.31;;;11.35;43.79
48095;BME280;33874;52.070;-0.516;2023-04-25T11:05:49;101529.78;;;11.33;44.46
48095;BME280;33874;52.070;-0.516;2023-04-25T11:08:29;101524.19;;;11.69;44.60
48095;BME280;33874;52.070;-0.516;2023-04-25T11:11:03;101523.89;;;12.02;43.46
48095;BME280;33874;52.070;-0.516;2023-04-25T11:13:30;101526.20;;;11.98;42.83
48095;BME280;33874;52.070;-0.516;2023-04-25T11:15:58;101522.67;;;11.72;42.87
48095;BME280;33874;52.070;-0.516;2023-04-25T11:18:43;101530.66;;;11.53;42.72
48095;BME280;33874;52.070;-0.516;2023-04-25T11:21:11;101530.46;;;11.26;42.64
48095;BME280;33874;52.070;-0.516;2023-04-25T11:23:39;101530.59;;;11.15;43.21
48095;BME280;33874;52.070;-0.516;2023-04-25T11:26:07;101524.04;;;11.39;43.90
48095;BME280;33874;52.070;-0.516;2023-04-25T11:28:35;101519.40;;;11.69;43.34
48095;BME280;33874;52.070;-0.516;2023-04-25T11:31:05;101522.38;;;11.70;43.41
48095;BME280;33874;52.070;-0.516;2023-04-25T11:36:27;101529.70;;;11.43;43.73
48095;BME280;33874;52.070;-0.516;2023-04-25T11:38:56;101531.96;;;11.25;43.24
48095;BME280;33874;52.070;-0.516;2023-04-25T11:41:23;101526.52;;;11.01;43.18
48095;BME280;33874;52.070;-0.516;2023-04-25T11:43:54;101528.54;;;10.83;43.43
48095;BME280;33874;52.070;-0.516;2023-04-25T11:46:23;101531.54;;;10.73;43.65
48095;BME280;33874;52.070;-0.516;2023-04-25T11:48:52;101532.08;;;10.66;43.14
48095;BME280;33874;52.070;-0.516;2023-04-25T11:51:23;101530.04;;;10.72;43.65
48095;BME280;33874;52.070;-0.516;2023-04-25T11:53:51;101529.03;;;11.14;44.69
48095;BME280;33874;52.070;-0.516;2023-04-25T11:56:20;101526.20;;;11.68;44.73
48095;BME280;33874;52.070;-0.516;2023-04-25T11:58:55;101522.27;;;12.01;44.14
48095;BME280;33874;52.070;-0.516;2023-04-25T12:04:14;101522.70;;;12.22;43.08
48095;BME280;33874;52.070;-0.516;2023-04-25T12:06:44;101526.27;;;11.97;41.99
48095;BME280;33874;52.070;-0.516;2023-04-25T12:09:16;101526.66;;;11.62;42.15
48095;BME280;33874;52.070;-0.516;2023-04-25T12:11:47;101536.44;;;11.42;42.40
48095;BME280;33874;52.070;-0.516;2023-04-25T12:16:50;101524.45;;;12.09;43.22
48095;BME280;33874;52.070;-0.516;2023-04-25T12:19:26;101530.87;;;12.43;42.81
48095;BME280;33874;52.070;-0.516;2023-04-25T12:21:55;101527.28;;;12.64;42.29
48095;BME280;33874;52.070;-0.516;2023-04-25T12:24:26;101524.54;;;12.74;42.31
48095;BME280;33874;52.070;-0.516;2023-04-25T12:27:03;101524.89;;;13.06;42.62
48095;BME280;33874;52.070;-0.516;2023-04-25T12:29:32;101525.33;;;13.34;41.96
48095;BME280;33874;52.070;-0.516;2023-04-25T12:32:16;101531.20;;;13.32;41.23
48095;BME280;33874;52.070;-0.516;2023-04-25T12:34:44;101534.36;;;12.94;40.50
48095;BME280;33874;52.070;-0.516;2023-04-25T12:37:12;101539.00;;;12.50;39.87
48095;BME280;33874;52.070;-0.516;2023-04-25T12:40:02;101537.50;;;12.06;39.87
48095;BME280;33874;52.070;-0.516;2023-04-25T12:42:30;101537.23;;;11.73;40.32
48095;BME280;33874;52.070;-0.516;2023-04-25T12:44:58;101535.07;;;11.72;40.53
48095;BME280;33874;52.070;-0.516;2023-04-25T12:47:26;101535.33;;;11.96;40.39
48095;BME280;33874;52.070;-0.516;2023-04-25T12:49:57;101533.15;;;12.24;40.80
48095;BME280;33874;52.070;-0.516;2023-04-25T12:52:25;101532.84;;;12.78;41.52
48095;BME280;33874;52.070;-0.516;2023-04-25T12:54:53;101529.88;;;13.41;41.77
48095;BME280;33874;52.070;-0.516;2023-04-25T12:57:21;101528.73;;;13.59;40.83
48095;BME280;33874;52.070;-0.516;2023-04-25T12:59:49;101532.86;;;13.48;40.21
48095;BME280;33874;52.070;-0.516;2023-04-25T13:02:17;101535.46;;;13.34;40.16
48095;BME280;33874;52.070;-0.516;2023-04-25T13:04:50;101534.23;;;13.25;40.16
48095;BME280;33874;52.070;-0.516;2023-04-25T13:07:19;101543.66;;;13.09;39.62
48095;BME280;33874;52.070;-0.516;2023-04-25T13:09:47;101542.33;;;12.85;39.48
48095;BME280;33874;52.070;-0.516;2023-04-25T13:12:14;101539.13;;;12.72;39.19
48095;BME280;33874;52.070;-0.516;2023-04-25T13:14:43;101537.69;;;12.53;38.79